Time;durP1;ratioP1;P1;durP2;ratioP2;P2;SDS_P1;SDS_P2;PMS_P1;PMS_P2;Temp;Humidity;BMP_temperature;BMP_pressure;BME280_temperature;BME280_humidity;BME280_pressure;Samples;Min_cycle;Max_cycle;Signal;HPM_P1;HPM_P2
2021/05/07 00:01:37;;;;;;;3.08;2.75;;;8.90;99.90;;;8.61;86.02;101063.94;4041692;29;20488;-66
2021/05/07 00:03:39;;;;;;;4.18;3.25;;;8.90;99.90;;;8.74;85.00;101061.91;4040414;29;20037;-66
2021/05/07 00:05:40;;;;;;;4.47;2.78;;;8.90;99.90;;;8.66;85.46;101069.59;4039507;29;20033;-66
2021/05/07 00:07:41;;;;;;;5.10;3.13;;;8.90;99.90;;;8.73;84.99;101068.09;4041670;29;20025;-66
2021/05/07 00:09:41;;;;;;;6.07;3.15;;;8.80;99.90;;;8.73;85.15;101068.09;4041582;29;20036;-65
2021/05/07 00:11:42;;;;;;;5.63;2.83;;;8.80;99.90;;;8.81;84.21;101067.44;4041489;29;20060;-66
2021/05/07 00:13:46;;;;;;;3.60;2.83;;;8.80;99.90;;;8.71;84.55;101066.59;4041364;29;20061;-66
2021/05/07 00:15:47;;;;;;;4.15;2.88;;;8.80;99.90;;;8.62;84.87;101070.88;4041644;29;20037;-66
2021/05/07 00:17:48;;;;;;;8.18;3.42;;;8.80;99.90;;;8.60;85.42;101070.16;4041389;29;20496;-66
2021/05/07 00:19:49;;;;;;;4.05;3.25;;;8.70;99.90;;;8.63;84.04;101076.97;4041158;29;20081;-66
2021/05/07 00:21:49;;;;;;;4.60;2.88;;;8.80;99.90;;;8.61;85.06;101069.19;4041237;29;20037;-66
2021/05/07 00:23:52;;;;;;;4.88;2.70;;;8.70;99.90;;;8.59;84.68;101072.94;4041206;29;20036;-66
2021/05/07 00:25:53;;;;;;;3.33;2.95;;;8.70;99.90;;;8.46;84.64;101070.53;4041242;29;20040;-66
2021/05/07 00:28:01;;;;;;;3.55;3.05;;;8.70;99.90;;;8.55;84.90;101082.03;4041305;29;20386;-66
2021/05/07 00:30:03;;;;;;;3.58;3.10;;;8.70;99.90;;;8.65;84.77;101081.13;4051575;29;20527;-66
2021/05/07 00:32:04;;;;;;;8.27;3.72;;;8.60;99.90;;;8.67;84.58;101083.59;4051406;29;20116;-66
2021/05/07 00:34:05;;;;;;;3.92;3.08;;;8.80;99.90;;;8.70;83.37;101086.78;4041208;29;20133;-66
2021/05/07 00:36:06;;;;;;;4.05;3.22;;;8.70;99.90;;;8.59;84.32;101076.41;4050704;29;20076;-66
2021/05/07 00:38:07;;;;;;;5.20;3.35;;;8.70;99.90;;;8.55;84.53;101079.41;4041364;29;20037;-65
2021/05/07 00:40:09;;;;;;;3.92;2.88;;;8.80;99.90;;;8.41;85.12;101080.63;4024495;29;20026;-66
2021/05/07 00:42:11;;;;;;;3.80;3.15;;;8.70;99.90;;;8.38;85.47;101085.31;4041090;29;20096;-66
2021/05/07 00:44:12;;;;;;;3.83;3.22;;;8.50;99.90;;;8.28;85.27;101080.88;4041274;29;20168;-66
2021/05/07 00:46:13;;;;;;;3.72;3.13;;;8.60;99.90;;;8.25;85.72;101069.75;4039905;29;20033;-66
2021/05/07 00:48:19;;;;;;;5.50;3.63;;;8.50;99.90;;;8.21;86.14;101084.94;4041029;29;20064;-66
2021/05/07 00:50:20;;;;;;;5.43;2.88;;;8.50;99.90;;;8.26;85.60;101092.44;4040991;29;20085;-68
2021/05/07 00:52:21;;;;;;;5.68;2.92;;;8.40;99.90;;;8.06;86.03;101085.44;4041215;29;20044;-66
2021/05/07 00:54:22;;;;;;;3.60;3.17;;;8.40;99.90;;;7.92;86.67;101091.03;4040961;29;20104;-66
2021/05/07 00:56:23;;;;;;;7.20;3.63;;;8.30;99.90;;;7.85;87.06;101092.53;4024296;29;20034;-66
2021/05/07 00:58:24;;;;;;;4.65;3.72;;;8.10;99.90;;;7.66;87.36;101075.69;4041053;29;20088;-66
2021/05/07 01:00:27;;;;;;;5.43;3.78;;;8.10;99.90;;;7.53;87.84;101088.19;4039835;29;20126;-66
2021/05/07 01:02:28;;;;;;;5.15;3.78;;;8.00;99.90;;;7.70;87.31;101090.25;4039693;29;20458;-66
2021/05/07 01:04:29;;;;;;;4.03;3.50;;;8.00;99.90;;;7.57;87.80;101089.59;4040851;29;20029;-66
2021/05/07 01:06:30;;;;;;;5.47;3.42;;;7.90;99.90;;;7.48;88.06;101090.38;4040870;29;20035;-66
2021/05/07 01:08:31;;;;;;;5.32;3.22;;;7.90;99.90;;;7.41;88.13;101078.69;4039714;29;20029;-66
2021/05/07 01:10:32;;;;;;;5.10;3.33;;;7.70;99.90;;;7.46;88.84;101092.28;4041051;29;20108;-66
2021/05/07 01:12:35;;;;;;;4.75;3.20;;;7.80;99.90;;;7.41;88.21;101094.44;4040843;29;20033;-66
2021/05/07 01:14:37;;;;;;;4.32;3.10;;;7.70;99.90;;;7.34;89.02;101103.81;4039770;29;20100;-66
2021/05/07 01:16:38;;;;;;;5.63;3.60;;;7.70;99.90;;;7.36;88.77;101099.25;4041909;29;20040;-66
2021/05/07 01:18:38;;;;;;;5.70;3.22;;;7.60;99.90;;;7.40;88.22;101086.72;4043885;29;20029;-66
2021/05/07 01:20:39;;;;;;;5.53;3.35;;;7.70;99.90;;;7.26;88.80;101087.03;4043866;29;20029;-66
2021/05/07 01:22:45;;;;;;;4.93;3.55;;;7.60;99.90;;;7.13;89.80;101101.16;4043947;29;20490;-66
2021/05/07 01:24:47;;;;;;;4.05;3.65;;;7.60;99.90;;;7.18;89.21;101098.97;4043985;29;20136;-65
2021/05/07 01:26:48;;;;;;;5.20;3.88;;;7.50;99.90;;;6.99;90.15;101077.81;4043950;29;20037;-65
2021/05/07 01:28:49;;;;;;;5.63;3.50;;;7.50;99.90;;;6.99;90.23;101098.00;4046137;29;20029;-66
2021/05/07 01:30:50;;;;;;;4.10;3.70;;;7.40;99.90;;;6.90;90.68;101107.41;4058747;29;20076;-65
2021/05/07 01:32:52;;;;;;;4.38;3.85;;;7.30;99.90;;;6.92;90.90;101107.28;4047636;29;20056;-66
2021/05/07 01:34:53;;;;;;;5.38;3.65;;;7.30;99.90;;;7.00;90.81;101110.97;4043395;29;20084;-65
2021/05/07 01:36:55;;;;;;;4.80;3.42;;;7.30;99.90;;;6.88;90.76;101111.09;4054915;29;20036;-65
2021/05/07 01:38:55;;;;;;;4.22;3.78;;;7.30;99.90;;;6.87;91.07;101114.72;4043683;29;20052;-66
2021/05/07 01:40:57;;;;;;;5.60;3.80;;;7.30;99.90;;;6.89;91.41;101118.03;4043771;29;20533;-66
2021/05/07 01:42:59;;;;;;;5.03;4.47;;;7.20;99.90;;;6.81;91.54;101125.69;4043420;29;20029;-66
2021/05/07 01:44:59;;;;;;;6.15;4.00;;;7.20;99.90;;;6.66;91.40;101118.06;4043863;29;20025;-65
2021/05/07 01:47:00;;;;;;;6.82;3.95;;;7.10;99.90;;;6.73;91.66;101128.06;4042326;29;20029;-65
2021/05/07 01:49:01;;;;;;;6.15;4.13;;;7.10;99.90;;;6.94;90.39;101137.69;4043548;29;20029;-66
2021/05/07 01:51:08;;;;;;;6.57;4.00;;;7.10;99.90;;;6.85;90.84;101130.53;4043297;29;20037;-66
2021/05/07 01:53:10;;;;;;;5.45;3.90;;;7.10;99.90;;;6.88;90.82;101129.47;4043557;29;20033;-66
2021/05/07 01:55:15;;;;;;;7.93;4.63;;;7.10;99.90;;;6.82;91.20;101136.03;4042400;29;20055;-66
2021/05/07 01:57:16;;;;;;;5.18;4.47;;;7.20;99.90;;;6.65;91.51;101131.31;4043385;29;20033;-66
2021/05/07 01:59:17;;;;;;;4.88;3.95;;;7.00;99.90;;;6.57;91.62;101134.50;4042115;29;20037;-66
2021/05/07 02:01:18;;;;;;;7.93;5.10;;;7.00;99.90;;;6.57;91.91;101139.75;4026654;29;20502;-66
2021/05/07 02:03:19;;;;;;;5.55;4.18;;;7.00;99.90;;;6.54;91.60;101134.75;4043352;29;20033;-66
2021/05/07 02:05:23;;;;;;;6.93;4.60;;;7.00;99.90;;;6.49;91.79;101139.53;4042011;29;20066;-66
2021/05/07 02:07:24;;;;;;;7.35;5.57;;;6.80;99.90;;;6.40;91.50;101136.78;4043496;29;20044;-65
2021/05/07 02:09:25;;;;;;;8.15;5.20;;;6.80;99.90;;;6.23;92.80;101122.41;4043394;29;20037;-65
2021/05/07 02:11:26;;;;;;;7.10;4.43;;;6.80;99.90;;;6.29;93.05;101150.75;4042391;29;20557;-65
2021/05/07 02:13:27;;;;;;;6.07;4.68;;;6.70;99.90;;;6.30;92.84;101148.97;4042153;29;20064;-65
2021/05/07 02:15:28;;;;;;;7.57;4.25;;;6.70;99.90;;;6.42;92.78;101148.00;4041904;29;20033;-65
2021/05/07 02:17:29;;;;;;;6.13;4.25;;;6.70;99.90;;;6.42;92.59;101156.69;4043310;29;20053;-65
2021/05/07 02:19:30;;;;;;;5.32;4.70;;;6.80;99.90;;;6.16;92.38;101150.00;4043125;29;20040;-65
2021/05/07 02:21:31;;;;;;;7.25;4.70;;;6.70;99.90;;;6.07;93.50;101148.94;4043326;29;20488;-65
2021/05/07 02:23:32;;;;;;;6.90;4.65;;;6.60;99.90;;;6.33;92.77;101154.78;4042947;29;20069;-65
2021/05/07 02:25:33;;;;;;;5.65;5.13;;;6.70;99.90;;;6.43;92.29;101149.66;4043206;29;20052;-65
2021/05/07 02:27:34;;;;;;;5.10;4.22;;;6.70;99.90;;;6.51;92.36;101149.91;4041988;29;20033;-65
2021/05/07 02:29:34;;;;;;;8.10;4.60;;;6.70;99.90;;;6.35;92.52;101160.75;4050826;29;20552;-65
2021/05/07 02:31:35;;;;;;;5.45;4.28;;;6.70;99.90;;;6.27;93.57;101160.50;4056413;29;20122;-65
2021/05/07 02:33:38;;;;;;;7.43;4.40;;;6.70;99.90;;;6.40;93.39;101161.22;4042109;29;20037;-65
2021/05/07 02:35:39;;;;;;;6.38;4.25;;;6.70;99.90;;;6.51;92.03;101158.59;4044332;29;20048;-65
2021/05/07 02:37:40;;;;;;;6.63;4.28;;;6.70;99.90;;;6.62;91.01;101158.59;4050945;29;20033;-66
2021/05/07 02:39:41;;;;;;;4.63;4.07;;;6.80;99.90;;;6.49;91.49;101147.41;4041702;29;20426;-66
2021/05/07 02:41:44;;;;;;;7.25;4.53;;;6.80;99.90;;;6.67;90.37;101161.69;4042976;29;20044;-65
2021/05/07 02:43:45;;;;;;;5.95;4.25;;;6.80;99.90;;;6.64;90.49;101164.53;4042886;29;20454;-66
2021/05/07 02:45:46;;;;;;;5.55;4.22;;;6.90;99.90;;;6.72;89.27;101168.38;4057110;29;20032;-66
2021/05/07 02:47:47;;;;;;;6.22;4.57;;;6.90;99.90;;;6.71;89.20;101172.75;4042606;29;20081;-65
2021/05/07 02:49:49;;;;;;;6.72;4.40;;;6.90;99.90;;;6.68;89.81;101173.84;4042792;29;20397;-65
2021/05/07 02:51:50;;;;;;;6.13;4.18;;;6.90;99.90;;;6.63;89.91;101175.97;4042923;29;20111;-65
2021/05/07 02:53:51;;;;;;;5.70;4.50;;;6.90;99.90;;;6.61;89.53;101183.13;4042887;29;20037;-65
2021/05/07 02:55:52;;;;;;;5.03;4.53;;;6.80;99.90;;;6.72;87.78;101192.75;4042618;29;20040;-66
2021/05/07 02:57:53;;;;;;;5.05;4.15;;;6.90;99.90;;;6.66;87.67;101180.97;4042736;29;20040;-65
2021/05/07 02:59:54;;;;;;;6.72;4.53;;;6.90;99.90;;;6.57;87.52;101181.69;4042561;29;20044;-66
2021/05/07 03:01:55;;;;;;;5.10;4.15;;;6.80;99.90;;;6.52;87.90;101186.47;4042652;29;20068;-65
2021/05/07 03:03:56;;;;;;;5.05;4.43;;;6.80;99.90;;;6.44;88.00;101188.03;4042472;29;20032;-65
2021/05/07 03:05:57;;;;;;;8.05;3.97;;;6.70;99.90;;;6.25;88.00;101180.72;4042263;29;20029;-65
2021/05/07 03:07:57;;;;;;;5.13;4.30;;;6.70;99.90;;;6.30;88.49;101188.25;4042718;29;20418;-66
2021/05/07 03:09:58;;;;;;;5.10;4.53;;;6.60;99.90;;;6.30;88.70;101177.78;4042504;29;20025;-65
2021/05/07 03:11:59;;;;;;;7.88;4.85;;;6.60;99.90;;;6.19;89.16;101175.13;4041339;29;20085;-66
2021/05/07 03:14:00;;;;;;;5.53;4.05;;;6.50;99.90;;;6.19;89.54;101191.69;4042390;29;20120;-66
2021/05/07 03:16:02;;;;;;;5.30;4.20;;;6.60;99.90;;;6.27;88.95;101191.94;4042491;29;20033;-66
2021/05/07 03:18:03;;;;;;;4.57;4.00;;;6.60;99.90;;;6.22;87.89;101207.16;4042383;29;20061;-65
2021/05/07 03:20:06;;;;;;;6.13;3.80;;;6.50;99.90;;;6.13;88.06;101206.09;4040849;29;20029;-66
2021/05/07 03:22:07;;;;;;;4.20;3.80;;;6.40;99.90;;;6.17;87.27;101204.06;4056710;29;20093;-65
2021/05/07 03:24:09;;;;;;;5.07;4.57;;;6.40;99.90;;;6.19;86.97;101201.31;4042288;29;20090;-65
2021/05/07 03:26:10;;;;;;;5.78;4.28;;;6.40;99.90;;;6.14;86.92;101204.31;4042349;29;20025;-66
2021/05/07 03:28:12;;;;;;;5.57;3.83;;;6.50;99.90;;;6.12;87.75;101211.44;4042272;29;20025;-66
2021/05/07 03:30:14;;;;;;;6.78;4.20;;;6.40;99.90;;;6.15;87.33;101208.59;4055060;29;20058;-66
2021/05/07 03:32:15;;;;;;;6.05;4.35;;;6.40;99.90;;;6.10;87.21;101206.31;4051073;29;20029;-65
2021/05/07 03:34:16;;;;;;;7.63;4.13;;;6.30;99.90;;;6.15;86.88;101197.28;4042049;29;20174;-66
2021/05/07 03:36:17;;;;;;;5.57;4.20;;;6.40;99.90;;;6.22;86.46;101212.41;4052696;29;20115;-65
2021/05/07 03:38:18;;;;;;;4.30;3.60;;;6.30;99.90;;;6.12;86.87;101206.22;4042221;29;20043;-65
2021/05/07 03:40:19;;;;;;;5.43;4.60;;;6.40;99.90;;;6.06;87.73;101215.34;4024602;29;20034;-65
2021/05/07 03:42:20;;;;;;;5.85;3.35;;;6.40;99.90;;;6.09;87.66;101220.34;4041962;29;20040;-66
2021/05/07 03:44:21;;;;;;;4.15;3.70;;;6.30;99.90;;;6.16;86.40;101217.25;4042157;29;20033;-65
2021/05/07 03:46:22;;;;;;;4.10;3.70;;;6.40;99.90;;;6.04;87.06;101212.00;4042012;29;20025;-66
2021/05/07 03:48:23;;;;;;;5.10;3.92;;;6.40;99.90;;;6.02;87.43;101220.94;4040841;29;20085;-65
2021/05/07 03:50:24;;;;;;;6.07;4.70;;;6.30;99.90;;;6.06;87.74;101217.97;4041786;29;20037;-65
2021/05/07 03:52:25;;;;;;;8.45;4.22;;;6.30;99.90;;;6.03;88.16;101220.00;4041876;29;20401;-65
2021/05/07 03:54:27;;;;;;;4.82;4.30;;;6.40;99.90;;;5.93;88.90;101204.13;4041920;29;20390;-65
2021/05/07 03:56:29;;;;;;;5.93;4.10;;;6.30;99.90;;;5.93;89.33;101201.50;4040712;29;20032;-65
2021/05/07 03:58:30;;;;;;;7.63;4.63;;;6.30;99.90;;;6.01;89.49;101208.78;4041841;29;20040;-65
2021/05/07 04:00:31;;;;;;;7.25;5.00;;;6.30;99.90;;;5.89;89.76;101209.69;4040435;29;20496;-65
2021/05/07 04:02:32;;;;;;;7.03;4.57;;;6.20;99.90;;;6.06;88.72;101217.16;4044777;29;20032;-65
2021/05/07 04:04:35;;;;;;;4.45;3.95;;;6.30;99.90;;;6.10;88.34;101234.28;4055904;29;20025;-65
2021/05/07 04:06:36;;;;;;;5.88;4.30;;;6.30;99.90;;;6.09;87.75;101227.41;4057362;29;20370;-65
2021/05/07 04:08:41;;;;;;;4.60;3.75;;;6.20;99.90;;;6.17;86.68;101245.97;4057200;29;20021;-65
2021/05/07 04:10:44;;;;;;;6.35;4.47;;;6.30;99.90;;;6.10;86.97;101242.97;4057370;29;20111;-65
2021/05/07 04:14:48;;;;;;;5.45;4.03;;;6.30;99.90;;;6.04;86.50;101234.75;4057285;29;20036;-65
2021/05/07 04:16:49;;;;;;;7.50;5.10;;;6.30;99.90;;;5.99;87.13;101242.13;4055778;29;20047;-65
2021/05/07 04:18:55;;;;;;;4.93;4.43;;;6.30;99.90;;;5.97;86.32;101250.06;4057185;29;20397;-65
2021/05/07 04:20:56;;;;;;;4.70;3.88;;;6.30;99.90;;;5.94;86.52;101252.09;4055653;29;20061;-67
2021/05/07 04:22:57;;;;;;;5.65;4.15;;;6.20;99.90;;;5.81;86.67;101251.28;4056892;29;20033;-67
2021/05/07 04:24:58;;;;;;;4.68;4.20;;;6.20;99.90;;;5.86;86.84;101259.66;4055923;29;20077;-66
2021/05/07 04:27:00;;;;;;;5.47;4.18;;;6.20;99.90;;;5.83;86.61;101260.69;4056950;29;20107;-66
2021/05/07 04:29:01;;;;;;;8.60;6.00;;;6.10;99.90;;;5.82;86.43;101259.06;4056959;29;20040;-66
2021/05/07 04:31:02;;;;;;;6.10;4.28;;;6.10;99.90;;;5.81;86.70;101259.16;4056503;29;20048;-66
2021/05/07 04:33:03;;;;;;;4.80;4.05;;;6.10;99.90;;;5.75;86.77;101256.97;4043638;29;20041;-65
2021/05/07 04:35:04;;;;;;;5.03;4.50;;;6.00;99.90;;;5.76;86.05;101256.03;4040084;29;20029;-66
2021/05/07 04:37:05;;;;;;;4.93;4.53;;;6.00;99.90;;;5.57;87.25;101241.69;4052163;29;20501;-66
2021/05/07 04:39:07;;;;;;;5.80;4.22;;;6.00;99.90;;;5.63;87.14;101257.88;4041397;29;20077;-66
2021/05/07 04:41:08;;;;;;;6.43;5.65;;;5.90;99.90;;;5.67;87.76;101257.56;4024798;29;20068;-65
2021/05/07 04:43:09;;;;;;;6.45;4.45;;;5.90;99.90;;;5.72;87.38;101259.81;4041334;29;20401;-66
2021/05/07 04:45:11;;;;;;;5.55;4.80;;;6.00;99.90;;;5.67;87.26;101257.56;4041445;29;20071;-66
2021/05/07 04:47:12;;;;;;;5.10;4.55;;;6.00;99.90;;;5.57;86.54;101253.94;4040139;29;20111;-66
2021/05/07 04:49:13;;;;;;;4.57;4.18;;;5.90;99.90;;;5.65;86.44;101269.06;4039923;29;20042;-65
2021/05/07 04:51:13;;;;;;;6.47;4.40;;;5.90;99.90;;;5.51;86.24;101257.00;4041885;29;20029;-65
2021/05/07 04:53:15;;;;;;;5.35;4.25;;;5.90;99.90;;;5.39;87.36;101258.72;4043439;29;20412;-66
2021/05/07 04:55:16;;;;;;;5.22;4.47;;;5.80;99.90;;;5.41;87.00;101266.44;4043458;29;20040;-65
2021/05/07 04:57:17;;;;;;;6.03;4.60;;;5.80;99.90;;;5.33;87.57;101256.53;4044507;29;20040;-65
2021/05/07 04:59:18;;;;;;;4.40;3.97;;;5.80;99.90;;;5.52;86.92;101261.28;4044234;29;20063;-66
2021/05/07 05:01:19;;;;;;;4.47;4.07;;;5.80;99.90;;;5.56;86.15;101258.31;4044372;29;20074;-66
2021/05/07 05:03:20;;;;;;;4.72;4.22;;;5.90;99.90;;;5.60;86.17;101274.66;4044164;29;20096;-66
2021/05/07 05:05:21;;;;;;;4.88;4.15;;;5.90;99.90;;;5.71;85.67;101281.69;4044120;29;20513;-66
2021/05/07 05:07:22;;;;;;;4.60;4.07;;;5.90;99.90;;;5.67;85.00;101283.72;4044019;29;20094;-66
2021/05/07 05:09:22;;;;;;;4.60;4.20;;;6.00;99.90;;;5.67;85.14;101286.34;4044222;29;20033;-66
2021/05/07 05:11:23;;;;;;;7.13;4.30;;;6.00;99.90;;;5.63;85.05;101290.13;4044049;29;20037;-66
2021/05/07 05:13:26;;;;;;;5.10;4.60;;;6.00;99.90;;;5.63;84.02;101268.34;4042835;29;20131;-66
2021/05/07 05:15:27;;;;;;;5.78;5.18;;;6.10;99.90;;;5.65;84.48;101301.31;4042353;29;20029;-66
2021/05/07 05:17:28;;;;;;;5.50;5.00;;;6.10;99.90;;;5.34;85.21;101294.84;4044146;29;20032;-65
2021/05/07 05:19:29;;;;;;;6.85;4.45;;;6.00;99.90;;;5.43;85.99;101302.03;4044001;29;20040;-65
2021/05/07 05:21:30;;;;;;;5.28;4.15;;;6.00;99.90;;;5.64;85.10;101311.91;4042592;29;20044;-65
2021/05/07 05:23:32;;;;;;;6.10;4.97;;;6.10;99.90;;;5.69;85.44;101300.16;4043782;29;20040;-66
2021/05/07 05:25:33;;;;;;;4.32;3.92;;;6.10;99.90;;;5.70;85.78;101299.22;4042829;29;20096;-66
2021/05/07 05:27:35;;;;;;;5.55;4.93;;;6.10;99.90;;;5.66;86.14;101286.44;4044059;29;20029;-66
2021/05/07 05:29:36;;;;;;;7.53;4.38;;;6.20;99.90;;;5.79;86.82;101305.56;4052117;29;20032;-67
2021/05/07 05:31:38;;;;;;;4.70;4.30;;;6.20;99.90;;;5.94;86.19;101310.53;4057104;29;20052;-67
2021/05/07 05:33:38;;;;;;;5.05;4.50;;;6.40;99.90;;;6.02;85.50;101312.59;4043731;29;20040;-67
2021/05/07 05:35:40;;;;;;;5.13;4.63;;;6.40;99.90;;;6.03;85.85;101314.28;4042868;29;20029;-67
2021/05/07 05:37:41;;;;;;;5.53;4.28;;;6.40;99.90;;;5.92;85.86;101304.56;4052621;29;20035;-67
2021/05/07 05:39:42;;;;;;;5.47;4.65;;;6.60;99.90;;;6.13;86.59;101328.34;4056923;29;20037;-67
2021/05/07 05:41:43;;;;;;;5.68;5.13;;;6.50;99.90;;;6.10;86.59;101333.81;4056882;29;20024;-67
2021/05/07 05:43:46;;;;;;;7.50;5.00;;;6.60;99.90;;;6.15;87.88;101325.63;4058824;29;20088;-67
2021/05/07 05:45:46;;;;;;;5.90;5.28;;;6.70;99.90;;;6.23;88.08;101331.97;4058504;29;20384;-67
2021/05/07 05:47:48;;;;;;;7.63;5.50;;;6.70;99.90;;;6.29;87.94;101333.28;4057233;29;20032;-67
2021/05/07 05:49:48;;;;;;;7.22;6.30;;;6.80;99.90;;;6.31;88.14;101336.63;4057696;29;20040;-67
2021/05/07 05:51:49;;;;;;;6.70;5.97;;;6.80;99.90;;;6.33;87.57;101330.31;4059056;29;20481;-67
2021/05/07 05:53:50;;;;;;;6.57;5.65;;;6.90;99.90;;;6.54;88.06;101339.19;4057789;29;20036;-67
2021/05/07 05:55:51;;;;;;;6.05;5.13;;;7.00;99.90;;;6.66;87.54;101348.75;4057566;29;20088;-67
2021/05/07 05:57:53;;;;;;;7.00;5.28;;;7.10;99.90;;;6.71;87.88;101350.19;4059037;29;20413;-67
2021/05/07 05:59:53;;;;;;;7.07;5.90;;;7.20;99.90;;;6.72;88.34;101351.88;4059003;29;20088;-67
2021/05/07 06:01:54;;;;;;;6.32;5.68;;;7.30;99.90;;;6.63;88.38;101335.06;4054786;29;20036;-67
2021/05/07 06:03:55;;;;;;;6.78;5.90;;;7.30;99.90;;;6.85;88.67;101363.09;4045902;29;20037;-67
2021/05/07 06:05:56;;;;;;;6.85;5.82;;;7.30;99.90;;;6.91;88.53;101357.38;4043174;29;20386;-67
2021/05/07 06:07:57;;;;;;;8.55;6.30;;;7.40;99.90;;;6.98;88.36;101363.84;4042949;29;20029;-67
2021/05/07 06:09:58;;;;;;;8.27;5.85;;;7.40;99.90;;;6.90;88.57;101338.16;4042850;29;20060;-67
2021/05/07 06:12:00;;;;;;;7.35;5.47;;;7.50;99.90;;;7.02;88.77;101371.31;4047054;29;20489;-67
2021/05/07 06:14:01;;;;;;;8.57;5.03;;;7.50;99.90;;;7.01;89.47;101361.81;4041492;29;20058;-67
2021/05/07 06:16:02;;;;;;;7.43;5.70;;;7.60;99.90;;;7.09;89.51;101367.28;4042035;29;20425;-67
2021/05/07 06:18:04;;;;;;;6.35;5.43;;;7.70;99.90;;;7.05;89.46;101368.47;4041910;29;20057;-67
2021/05/07 06:20:08;;;;;;;6.13;5.20;;;7.70;99.90;;;7.08;89.31;101364.78;4042753;29;20046;-67
2021/05/07 06:22:09;;;;;;;8.15;5.90;;;7.70;99.90;;;7.23;89.43;101382.78;4042064;29;20095;-67
2021/05/07 06:24:10;;;;;;;6.18;5.57;;;7.80;99.90;;;7.20;89.69;101379.56;4041785;29;20069;-67
2021/05/07 06:26:12;;;;;;;6.57;4.60;;;7.70;99.90;;;7.28;90.07;101384.25;4043170;29;20025;-67
2021/05/07 06:28:13;;;;;;;6.68;4.72;;;7.90;99.90;;;7.40;90.25;101385.91;4041915;29;20448;-67
2021/05/07 06:30:15;;;;;;;7.38;5.10;;;7.90;99.90;;;7.63;88.62;101390.19;4055937;29;20041;-67
2021/05/07 06:32:16;;;;;;;9.57;6.40;;;8.10;99.90;;;7.62;89.21;101391.13;4051454;29;20109;-67
2021/05/07 06:34:17;;;;;;;5.82;5.00;;;8.20;99.90;;;7.81;88.65;101386.09;4041659;29;20103;-67
2021/05/07 06:36:20;;;;;;;6.25;5.43;;;8.20;99.90;;;7.89;88.58;101386.31;4053669;29;20048;-68
2021/05/07 06:38:21;;;;;;;228.52;207.68;;;8.40;99.90;;;7.96;89.39;101389.28;4056966;29;20020;-68
2021/05/07 06:40:22;;;;;;;10.68;7.30;;;8.50;99.90;;;7.85;89.30;101397.19;4058400;29;20043;-68
2021/05/07 06:42:23;;;;;;;6.07;5.45;;;8.60;99.90;;;8.08;89.49;101398.81;4058476;29;20033;-68
2021/05/07 06:44:27;;;;;;;5.78;5.18;;;8.60;99.90;;;8.12;89.24;101389.72;4058218;29;20373;-68
2021/05/07 06:46:28;;;;;;;6.25;4.70;;;8.90;99.90;;;8.32;88.36;101394.22;4057290;29;20052;-68
2021/05/07 06:48:29;;;;;;;6.30;5.18;;;9.00;99.90;;;8.47;88.30;101392.97;4058342;29;20033;-68
2021/05/07 06:50:30;;;;;;;7.43;4.82;;;9.20;99.90;;;8.73;86.98;101391.63;4056922;29;20052;-68
2021/05/07 06:52:32;;;;;;;7.80;4.47;;;9.40;99.90;;;8.80;85.32;101386.69;4058158;29;20028;-68
2021/05/07 06:54:33;;;;;;;6.82;4.43;;;9.50;99.90;;;8.85;84.70;101387.13;4057149;29;20509;-68
2021/05/07 06:56:33;;;;;;;7.53;4.80;;;9.70;99.90;;;8.90;84.46;101377.88;4058184;29;20060;-68
2021/05/07 06:58:35;;;;;;;5.13;4.63;;;9.80;99.90;;;8.96;84.91;101394.13;4041570;29;20089;-68
2021/05/07 07:00:37;;;;;;;8.00;4.18;;;9.80;99.90;;;9.15;84.14;101397.69;4057930;29;20080;-68
2021/05/07 07:02:38;;;;;;;6.88;4.10;;;9.90;99.90;;;9.25;83.69;101393.31;4057878;29;20024;-68
2021/05/07 07:04:39;;;;;;;5.50;4.20;;;10.10;99.90;;;9.43;80.74;101407.53;4056745;29;20417;-68
2021/05/07 07:06:40;;;;;;;5.82;4.20;;;10.10;99.90;;;9.53;80.90;101409.38;4056747;29;20039;-68
2021/05/07 07:08:40;;;;;;;5.43;4.03;;;10.30;99.90;;;9.56;80.64;101393.31;4056689;29;20172;-68
2021/05/07 07:10:41;;;;;;;5.03;4.18;;;10.40;99.90;;;9.69;79.84;101407.06;4056811;29;20469;-68
2021/05/07 07:12:42;;;;;;;4.60;4.13;;;10.40;99.90;;;9.75;80.75;101402.09;4057928;29;20032;-68
2021/05/07 07:14:43;;;;;;;4.55;4.05;;;10.50;99.90;;;9.91;80.49;101410.31;4057591;29;20028;-68
2021/05/07 07:16:44;;;;;;;6.70;3.95;;;10.60;99.90;;;9.91;80.14;101410.31;4057790;29;20029;-68
2021/05/07 07:18:45;;;;;;;7.93;4.50;;;10.70;99.90;;;9.88;79.87;101405.31;4056572;29;20044;-68
2021/05/07 07:20:47;;;;;;;4.35;3.83;;;10.80;99.90;;;9.95;79.50;101409.06;4040899;29;20021;-68
2021/05/07 07:22:48;;;;;;;6.32;3.55;;;10.90;99.90;;;10.01;79.40;101412.94;4072222;29;20381;-68
2021/05/07 07:24:49;;;;;;;4.15;3.70;;;10.90;99.90;;;10.12;79.63;101409.38;4057608;29;20049;-68
2021/05/07 07:26:50;;;;;;;8.95;3.30;;;11.00;99.90;;;10.21;78.97;101408.59;4057620;29;20032;-68
2021/05/07 07:28:53;;;;;;;5.60;3.55;;;11.00;99.90;;;10.32;78.73;101413.72;4057571;29;20028;-68
2021/05/07 07:30:54;;;;;;;7.77;4.30;;;11.10;99.90;;;10.33;78.22;101423.31;4057345;29;20058;-68
2021/05/07 07:32:55;;;;;;;4.82;3.58;;;11.20;99.90;;;10.61;76.64;101426.91;4045346;29;20033;-68
2021/05/07 07:34:59;;;;;;;7.78;3.65;;;11.40;99.90;;;10.82;75.06;101428.44;4041706;29;20029;-68
2021/05/07 07:37:00;;;;;;;4.78;2.97;;;11.50;99.90;;;10.72;74.45;101424.97;4052304;29;20039;-68
2021/05/07 07:39:02;;;;;;;3.88;3.22;;;11.60;99.90;;;10.73;74.53;101433.72;4041934;29;20029;-68
2021/05/07 07:41:03;;;;;;;6.35;3.90;;;11.60;99.90;;;10.65;75.97;101436.22;4040802;29;20061;-68
2021/05/07 07:43:04;;;;;;;6.38;4.00;;;11.60;99.90;;;10.41;78.22;101432.19;4041867;29;20096;-68
2021/05/07 07:45:07;;;;;;;6.32;3.75;;;11.60;99.90;;;10.71;77.81;101427.75;4040763;29;20037;-68
2021/05/07 07:47:08;;;;;;;5.82;3.58;;;11.70;99.90;;;10.84;76.46;101429.13;4056206;29;20032;-68
2021/05/07 07:49:09;;;;;;;3.97;2.97;;;11.80;99.90;;;10.78;73.61;101436.78;4040443;29;20040;-68
2021/05/07 07:51:10;;;;;;;4.15;2.92;;;11.90;99.90;;;10.96;71.88;101438.53;4041779;29;20032;-68
2021/05/07 07:53:11;;;;;;;6.22;3.22;;;12.00;99.90;;;10.73;71.46;101436.34;4041899;29;20029;-68
2021/05/07 07:55:13;;;;;;;6.53;2.70;;;11.90;99.90;;;10.78;70.00;101437.59;4040581;29;20089;-68
2021/05/07 07:57:14;;;;;;;4.70;3.17;;;11.80;99.90;;;10.84;71.19;101429.13;4041790;29;20050;-68
2021/05/07 07:59:15;;;;;;;6.55;3.03;;;11.90;99.90;;;11.07;72.05;101438.41;4040431;29;20038;-68
2021/05/07 08:01:16;;;;;;;5.63;3.72;;;12.00;99.90;;;11.30;71.79;101438.91;4040389;29;20540;-68
2021/05/07 08:03:16;;;;;;;5.38;3.70;;;12.00;99.90;;;11.44;71.72;101442.91;4041510;29;20033;-68
2021/05/07 08:05:18;;;;;;;9.63;3.60;;;12.20;99.90;;;11.24;69.84;101433.34;4040215;29;20036;-68
2021/05/07 08:07:19;;;;;;;6.35;3.35;;;12.30;99.90;;;11.22;70.87;101443.22;4040311;29;20448;-68
2021/05/07 08:09:20;;;;;;;7.78;4.63;;;12.20;99.90;;;11.20;70.84;101442.56;4041526;29;20084;-68
2021/05/07 08:11:21;;;;;;;7.18;2.75;;;12.30;99.90;;;11.00;70.56;101450.50;4024998;29;20027;-68
2021/05/07 08:13:22;;;;;;;7.32;3.85;;;12.20;99.90;;;10.97;71.88;101455.22;4040315;29;20029;-68
2021/05/07 08:15:23;;;;;;;6.13;3.13;;;12.20;99.90;;;11.10;68.91;101456.59;4041277;29;20517;-68
2021/05/07 08:17:25;;;;;;;4.20;2.38;;;12.20;99.90;;;11.38;68.15;101441.63;4041401;29;20156;-68
2021/05/07 08:19:26;;;;;;;5.18;2.38;;;12.40;99.90;;;11.48;65.97;101437.16;4039888;29;20041;-68
2021/05/07 08:21:29;;;;;;;7.03;2.85;;;12.40;99.90;;;11.43;65.80;101451.78;4040152;29;20512;-68
2021/05/07 08:23:30;;;;;;;4.60;2.42;;;12.50;99.90;;;11.35;66.28;101449.03;4041039;29;20120;-68
2021/05/07 08:25:30;;;;;;;5.50;2.60;;;12.60;99.90;;;11.73;65.42;101446.28;4039898;29;20037;-68
2021/05/07 08:27:31;;;;;;;7.35;2.55;;;12.60;99.90;;;11.46;63.42;101431.19;4040916;29;20025;-68
2021/05/07 08:29:34;;;;;;;4.55;2.10;;;12.70;99.90;;;11.45;64.07;101439.25;4047908;29;20160;-68
2021/05/07 08:31:35;;;;;;;5.43;2.20;;;12.70;99.90;;;11.35;61.77;101441.94;4055111;29;20036;-68
2021/05/07 08:33:35;;;;;;;5.28;2.47;;;12.70;99.90;;;11.38;62.22;101435.56;4039950;29;20048;-68
2021/05/07 08:35:36;;;;;;;3.58;1.92;;;12.70;99.90;;;11.21;59.22;101446.84;4056236;29;20103;-68